createdAt,value
2018-04-24T00:00:33.475Z,858.19
2018-04-24T00:01:33.353Z,858.16
2018-04-24T00:02:33.228Z,858.21
2018-04-24T00:03:33.111Z,858.19
2018-04-24T00:04:32.982Z,858.16
2018-04-24T00:05:32.859Z,858.18
2018-04-24T00:06:32.733Z,858.22
2018-04-24T00:07:32.611Z,858.23
2018-04-24T00:08:32.495Z,858.24
2018-04-24T00:09:32.368Z,858.27
2018-04-24T00:10:32.240Z,858.26
2018-04-24T00:11:32.118Z,858.24
2018-04-24T00:12:31.996Z,858.29
2018-04-24T00:13:31.874Z,858.28
2018-04-24T00:14:31.747Z,858.28
2018-04-24T00:15:31.624Z,858.28
2018-04-24T00:16:31.510Z,858.28
2018-04-24T00:17:31.378Z,858.28
2018-04-24T00:18:31.253Z,858.30
2018-04-24T00:19:31.132Z,858.27
2018-04-24T00:20:31.007Z,858.26
2018-04-24T00:21:30.881Z,858.24
2018-04-24T00:22:30.758Z,858.25
2018-04-24T00:23:30.634Z,858.26
2018-04-24T00:24:30.510Z,858.24
2018-04-24T00:25:30.386Z,858.24
2018-04-24T00:26:30.261Z,858.26
2018-04-24T00:27:30.141Z,858.25
2018-04-24T00:28:30.015Z,858.24
2018-04-24T00:29:29.892Z,858.26
2018-04-24T00:30:29.767Z,858.26
2018-04-24T00:31:29.642Z,858.24
2018-04-24T00:32:29.518Z,858.24
2018-04-24T00:33:29.395Z,858.25
2018-04-24T00:34:29.288Z,858.29
2018-04-24T00:35:29.147Z,858.27
2018-04-24T00:36:29.025Z,858.31
2018-04-24T00:37:28.901Z,858.31
2018-04-24T00:38:28.776Z,858.29
2018-04-24T00:39:28.652Z,858.29
2018-04-24T00:40:28.531Z,858.30
2018-04-24T00:41:28.405Z,858.31
2018-04-24T00:42:28.280Z,858.32
2018-04-24T00:43:28.160Z,858.29
2018-04-24T00:44:28.034Z,858.30
2018-04-24T00:45:27.910Z,858.33
2018-04-24T00:46:27.787Z,858.31
2018-04-24T00:47:27.663Z,858.32
2018-04-24T00:48:27.539Z,858.31
2018-04-24T00:49:27.418Z,858.31
2018-04-24T00:50:27.292Z,858.31
2018-04-24T00:51:27.167Z,858.31
2018-04-24T00:52:27.043Z,858.29
2018-04-24T00:53:26.920Z,858.28
2018-04-24T00:54:26.797Z,858.28
2018-04-24T00:55:26.672Z,858.29
2018-04-24T00:56:26.551Z,858.29
2018-04-24T00:57:26.424Z,858.31
2018-04-24T00:58:26.303Z,858.32
2018-04-24T00:59:26.180Z,858.34
2018-04-24T01:00:26.053Z,858.32
2018-04-24T01:01:25.929Z,858.36
2018-04-24T01:02:25.804Z,858.31
2018-04-24T01:03:25.681Z,858.34
2018-04-24T01:04:25.556Z,858.32
2018-04-24T01:05:25.433Z,858.32
2018-04-24T01:06:25.308Z,858.32
2018-04-24T01:07:25.184Z,858.34
2018-04-24T01:08:25.060Z,858.32
2018-04-24T01:09:24.938Z,858.32
2018-04-24T01:10:24.813Z,858.33
2018-04-24T01:11:24.687Z,858.31
2018-04-24T01:12:24.563Z,858.34
2018-04-24T01:13:24.443Z,858.31
2018-04-24T01:14:24.317Z,858.30
2018-04-24T01:15:24.193Z,858.27
2018-04-24T01:16:24.072Z,858.25
2018-04-24T01:17:23.999Z,858.24
2018-04-24T01:18:23.823Z,858.21
2018-04-24T01:19:23.699Z,858.23
2018-04-24T01:20:23.573Z,858.28
2018-04-24T01:21:23.454Z,858.29
2018-04-24T01:22:23.329Z,858.24
2018-04-24T01:23:23.205Z,858.31
2018-04-24T01:24:23.085Z,858.30
2018-04-24T01:25:22.959Z,858.32
2018-04-24T01:26:22.839Z,858.31
2018-04-24T01:27:22.710Z,858.32
2018-04-24T01:28:22.588Z,858.34
2018-04-24T01:29:22.464Z,858.29
2018-04-24T01:30:22.338Z,858.32
2018-04-24T01:31:22.215Z,858.29
2018-04-24T01:32:22.090Z,858.33
2018-04-24T01:33:21.968Z,858.30
2018-04-24T01:34:21.842Z,858.31
2018-04-24T01:35:21.721Z,858.35
2018-04-24T01:36:21.599Z,858.35
2018-04-24T01:37:21.473Z,858.36
2018-04-24T01:38:21.351Z,858.38
2018-04-24T01:39:21.225Z,858.34
2018-04-24T01:40:21.101Z,858.36
2018-04-24T01:41:20.976Z,858.39
2018-04-24T01:42:20.854Z,858.37
2018-04-24T01:43:20.727Z,858.35
2018-04-24T01:44:20.610Z,858.35
2018-04-24T01:45:20.479Z,858.34
2018-04-24T01:46:20.434Z,858.35
2018-04-24T01:47:20.234Z,858.34
2018-04-24T01:48:20.109Z,858.34
2018-04-24T01:49:19.984Z,858.31
2018-04-24T01:50:19.884Z,858.32
2018-04-24T01:51:19.737Z,858.29
2018-04-24T01:52:19.613Z,858.28
2018-04-24T01:53:19.489Z,858.26
2018-04-24T01:54:19.364Z,858.30
2018-04-24T01:55:19.238Z,858.31
2018-04-24T01:56:19.117Z,858.36
2018-04-24T01:57:18.991Z,858.35
2018-04-24T01:58:18.869Z,858.40
2018-04-24T01:59:18.746Z,858.42
2018-04-24T02:00:18.625Z,858.41
2018-04-24T02:01:18.498Z,858.37
2018-04-24T02:02:18.379Z,858.41
2018-04-24T02:03:18.249Z,858.35
2018-04-24T02:04:18.126Z,858.35
2018-04-24T02:05:18.003Z,858.35
2018-04-24T02:06:17.878Z,858.30
2018-04-24T02:07:17.754Z,858.33
2018-04-24T02:08:17.631Z,858.33
2018-04-24T02:09:17.506Z,858.32
2018-04-24T02:10:17.380Z,858.31
2018-04-24T02:11:17.259Z,858.34
2018-04-24T02:12:17.143Z,858.30
2018-04-24T02:13:17.009Z,858.29
2018-04-24T02:14:16.887Z,858.27
2018-04-24T02:15:16.763Z,858.25
2018-04-24T02:16:16.641Z,858.27
2018-04-24T02:17:16.512Z,858.25
2018-04-24T02:18:16.388Z,858.24
2018-04-24T02:19:16.264Z,858.21
2018-04-24T02:20:16.142Z,858.21
2018-04-24T02:21:16.020Z,858.22
2018-04-24T02:22:15.893Z,858.16
2018-04-24T02:23:15.769Z,858.16
2018-04-24T02:24:15.643Z,858.11
2018-04-24T02:25:15.521Z,858.12
2018-04-24T02:26:15.394Z,858.13
2018-04-24T02:27:15.271Z,858.10
2018-04-24T02:28:15.144Z,858.12
2018-04-24T02:29:15.021Z,858.14
2018-04-24T02:30:14.896Z,858.14
2018-04-24T02:31:14.773Z,858.17
2018-04-24T02:32:14.649Z,858.19
2018-04-24T02:33:14.523Z,858.20
2018-04-24T02:34:14.397Z,858.20
2018-04-24T02:35:14.272Z,858.16
2018-04-24T02:36:14.151Z,858.17
2018-04-24T02:37:14.024Z,858.14
2018-04-24T02:38:13.901Z,858.15
2018-04-24T02:39:13.774Z,858.15
2018-04-24T02:40:13.684Z,858.18
2018-04-24T02:41:13.528Z,858.18
2018-04-24T02:42:13.400Z,858.17
2018-04-24T02:43:13.276Z,858.17
2018-04-24T02:44:13.149Z,858.14
2018-04-24T02:45:13.033Z,858.11
2018-04-24T02:46:12.899Z,858.12
2018-04-24T02:47:12.774Z,858.09
2018-04-24T02:48:12.650Z,858.10
2018-04-24T02:49:12.525Z,858.08
2018-04-24T02:50:12.399Z,858.08
2018-04-24T02:51:12.277Z,858.05
2018-04-24T02:52:12.151Z,858.06
2018-04-24T02:53:12.024Z,858.05
2018-04-24T02:54:11.898Z,858.05
2018-04-24T02:55:11.774Z,858.06
2018-04-24T02:56:11.649Z,858.09
2018-04-24T02:57:11.522Z,858.07
2018-04-24T02:58:11.395Z,858.10
2018-04-24T02:59:11.275Z,858.15
2018-04-24T03:00:11.151Z,858.13
2018-04-24T03:01:11.020Z,858.15
2018-04-24T03:02:10.907Z,858.10
2018-04-24T03:03:10.771Z,858.08
2018-04-24T03:04:10.644Z,858.07
2018-04-24T03:05:10.518Z,858.05
2018-04-24T03:06:10.395Z,858.05
2018-04-24T03:07:10.271Z,858.12
2018-04-24T03:08:10.149Z,858.11
2018-04-24T03:09:10.018Z,858.15
2018-04-24T03:10:09.893Z,858.12
2018-04-24T03:11:09.768Z,858.11
2018-04-24T03:12:09.642Z,858.14
2018-04-24T03:13:09.518Z,858.09
2018-04-24T03:14:09.394Z,858.14
2018-04-24T03:15:09.266Z,858.13
2018-04-24T03:16:09.141Z,858.15
2018-04-24T03:17:09.017Z,858.18
2018-04-24T03:18:08.892Z,858.15
2018-04-24T03:19:08.767Z,858.17
2018-04-24T03:20:08.668Z,858.19
2018-04-24T03:21:08.516Z,858.21
2018-04-24T03:22:08.391Z,858.26
2018-04-24T03:23:08.268Z,858.24
2018-04-24T03:24:08.141Z,858.28
2018-04-24T03:25:08.015Z,858.26
2018-04-24T03:26:07.891Z,858.26
2018-04-24T03:27:07.765Z,858.23
2018-04-24T03:28:07.640Z,858.25
2018-04-24T03:29:07.517Z,858.26
2018-04-24T03:30:07.392Z,858.28
2018-04-24T03:31:07.266Z,858.26
2018-04-24T03:32:07.140Z,858.27
2018-04-24T03:33:07.014Z,858.23
2018-04-24T03:34:06.890Z,858.24
2018-04-24T03:35:06.766Z,858.22
2018-04-24T03:36:06.640Z,858.24
2018-04-24T03:37:06.519Z,858.25
2018-04-24T03:38:06.389Z,858.25
2018-04-24T03:39:06.265Z,858.26
2018-04-24T03:40:06.139Z,858.25
2018-04-24T03:41:06.015Z,858.24
2018-04-24T03:42:05.887Z,858.25
2018-04-24T03:43:05.766Z,858.28
2018-04-24T03:44:05.639Z,858.28
2018-04-24T03:45:05.514Z,858.27
2018-04-24T03:46:05.390Z,858.27
2018-04-24T03:47:05.264Z,858.26
2018-04-24T03:48:05.140Z,858.26
2018-04-24T03:49:05.014Z,858.29
2018-04-24T03:50:04.890Z,858.27
2018-04-24T03:51:04.765Z,858.33
2018-04-24T03:52:04.645Z,858.30
2018-04-24T03:53:04.516Z,858.34
2018-04-24T03:54:04.390Z,858.31
2018-04-24T03:55:04.267Z,858.28
2018-04-24T03:56:04.144Z,858.33
2018-04-24T03:57:04.023Z,858.24
2018-04-24T03:58:03.890Z,858.26
2018-04-24T03:59:03.769Z,858.26
2018-04-24T04:00:03.643Z,858.27
2018-04-24T04:01:03.519Z,858.27
2018-04-24T04:02:03.391Z,858.23
2018-04-24T04:03:03.267Z,858.25
2018-04-24T04:04:03.143Z,858.23
2018-04-24T04:05:03.017Z,858.22
2018-04-24T04:06:02.893Z,858.18
2018-04-24T04:07:02.770Z,858.23
2018-04-24T04:08:02.644Z,858.21
2018-04-24T04:09:02.525Z,858.24
2018-04-24T04:10:02.392Z,858.25
2018-04-24T04:11:02.282Z,858.24
2018-04-24T04:12:02.144Z,858.23
2018-04-24T04:13:02.020Z,858.21
2018-04-24T04:14:01.947Z,858.24
2018-04-24T04:15:01.766Z,858.24
2018-04-24T04:16:01.735Z,858.22
2018-04-24T04:17:01.517Z,858.24
2018-04-24T04:18:01.397Z,858.27
2018-04-24T04:19:01.267Z,858.27
2018-04-24T04:20:01.143Z,858.31
2018-04-24T04:21:01.131Z,858.32
2018-04-24T04:22:00.890Z,858.32
2018-04-24T04:23:00.765Z,858.33
2018-04-24T04:24:00.640Z,858.28
2018-04-24T04:25:00.522Z,858.32
2018-04-24T04:26:00.394Z,858.31
2018-04-24T04:27:00.262Z,858.27
2018-04-24T04:28:00.260Z,858.28
2018-04-24T04:29:00.016Z,858.27
2018-04-24T04:29:59.889Z,858.26
2018-04-24T04:30:59.766Z,858.30
2018-04-24T04:31:59.641Z,858.33
2018-04-24T04:32:59.587Z,858.29
2018-04-24T04:33:59.388Z,858.32
2018-04-24T04:34:59.263Z,858.31
2018-04-24T04:35:59.139Z,858.32
2018-04-24T04:36:59.013Z,858.33
2018-04-24T04:37:58.885Z,858.38
2018-04-24T04:38:58.761Z,858.33
2018-04-24T04:39:58.636Z,858.34
2018-04-24T04:40:58.511Z,858.35
2018-04-24T04:41:58.382Z,858.33
2018-04-24T04:42:58.259Z,858.36
2018-04-24T04:43:58.133Z,858.37
2018-04-24T04:44:58.008Z,858.38
2018-04-24T04:45:57.924Z,858.44
2018-04-24T04:46:57.863Z,858.41
2018-04-24T04:47:57.687Z,858.46
2018-04-24T04:48:57.503Z,858.42
2018-04-24T04:49:57.377Z,858.46
2018-04-24T04:50:57.252Z,858.51
2018-04-24T04:51:57.128Z,858.50
2018-04-24T04:52:57.001Z,858.53
2018-04-24T04:53:56.873Z,858.50
2018-04-24T04:54:56.751Z,858.52
2018-04-24T04:55:56.623Z,858.53
2018-04-24T04:56:56.499Z,858.54
2018-04-24T04:57:56.370Z,858.55
2018-04-24T04:58:56.246Z,858.59
2018-04-24T04:59:56.119Z,858.61
2018-04-24T05:00:55.999Z,858.59
2018-04-24T05:01:55.868Z,858.60
2018-04-24T05:02:55.743Z,858.63
2018-04-24T05:03:55.615Z,858.63
2018-04-24T05:04:55.490Z,858.66
2018-04-24T05:05:55.363Z,858.68
2018-04-24T05:06:55.239Z,858.66
2018-04-24T05:07:55.112Z,858.72
2018-04-24T05:08:54.988Z,858.67
2018-04-24T05:09:54.860Z,858.67
2018-04-24T05:10:54.734Z,858.68
2018-04-24T05:11:54.612Z,858.72
2018-04-24T05:12:54.483Z,858.74
2018-04-24T05:13:54.357Z,858.72
2018-04-24T05:14:54.233Z,858.72
2018-04-24T05:15:54.152Z,858.72
2018-04-24T05:16:53.981Z,858.73
2018-04-24T05:17:53.854Z,858.72
2018-04-24T05:18:53.730Z,858.78
2018-04-24T05:19:53.603Z,858.78
2018-04-24T05:20:53.479Z,858.75
2018-04-24T05:21:53.351Z,858.75
2018-04-24T05:22:53.233Z,858.80
2018-04-24T05:23:53.099Z,858.78
2018-04-24T05:24:52.974Z,858.82
2018-04-24T05:25:52.849Z,858.78
2018-04-24T05:26:52.724Z,858.80
2018-04-24T05:27:52.605Z,858.79
2018-04-24T05:28:52.474Z,858.84
2018-04-24T05:29:52.348Z,858.84
2018-04-24T05:30:52.226Z,858.81
2018-04-24T05:31:52.100Z,858.84
2018-04-24T05:32:51.974Z,858.86
2018-04-24T05:33:51.849Z,858.79
2018-04-24T05:34:51.727Z,858.81
2018-04-24T05:35:51.661Z,858.81
2018-04-24T05:36:51.475Z,858.78
2018-04-24T05:37:51.349Z,858.79
2018-04-24T05:38:51.225Z,858.81
2018-04-24T05:39:51.098Z,858.83
2018-04-24T05:40:50.976Z,858.82
2018-04-24T05:41:50.850Z,858.82
2018-04-24T05:42:50.726Z,858.85
2018-04-24T05:43:50.598Z,858.87
2018-04-24T05:44:50.477Z,858.88
2018-04-24T05:45:50.350Z,858.87
2018-04-24T05:46:50.229Z,858.89
2018-04-24T05:47:50.101Z,858.90
2018-04-24T05:48:49.977Z,858.92
2018-04-24T05:49:49.852Z,858.93
2018-04-24T05:50:49.731Z,858.93
2018-04-24T05:51:49.605Z,858.93
2018-04-24T05:52:49.479Z,858.93
2018-04-24T05:53:49.354Z,858.97
2018-04-24T05:54:49.229Z,858.98
2018-04-24T05:55:49.105Z,858.97
2018-04-24T05:56:48.981Z,858.95
2018-04-24T05:57:48.935Z,859.00
2018-04-24T05:58:48.737Z,859.02
2018-04-24T05:59:48.608Z,859.01
2018-04-24T06:00:48.486Z,859.05
2018-04-24T06:01:48.360Z,859.03
2018-04-24T06:02:48.236Z,859.07
2018-04-24T06:03:48.114Z,859.04
2018-04-24T06:04:47.992Z,859.06
2018-04-24T06:05:47.864Z,859.10
2018-04-24T06:06:47.738Z,859.06
2018-04-24T06:07:47.619Z,859.12
2018-04-24T06:08:47.491Z,859.12
2018-04-24T06:09:47.369Z,859.11
2018-04-24T06:10:47.243Z,859.08
2018-04-24T06:11:47.131Z,859.10
2018-04-24T06:12:46.997Z,859.09
2018-04-24T06:13:46.869Z,859.10
2018-04-24T06:14:46.747Z,859.10
2018-04-24T06:15:46.624Z,859.10
2018-04-24T06:16:46.503Z,859.14
2018-04-24T06:17:46.377Z,859.13
2018-04-24T06:18:46.252Z,859.15
2018-04-24T06:19:46.130Z,859.14
2018-04-24T06:20:46.004Z,859.15
2018-04-24T06:21:45.881Z,859.13
2018-04-24T06:22:45.756Z,859.15
2018-04-24T06:23:45.632Z,859.20
2018-04-24T06:24:45.510Z,859.17
2018-04-24T06:25:45.386Z,859.18
2018-04-24T06:26:45.267Z,859.14
2018-04-24T06:27:45.139Z,859.16
2018-04-24T06:28:45.076Z,859.17
2018-04-24T06:29:44.890Z,859.19
2018-04-24T06:30:44.766Z,859.20
2018-04-24T06:31:44.644Z,859.18
2018-04-24T06:32:44.520Z,859.19
2018-04-24T06:33:44.395Z,859.19
2018-04-24T06:34:44.274Z,859.17
2018-04-24T06:35:44.148Z,859.18
2018-04-24T06:36:44.029Z,859.15
2018-04-24T06:37:43.907Z,859.11
2018-04-24T06:38:43.776Z,859.08
2018-04-24T06:39:43.657Z,859.13
2018-04-24T06:40:43.533Z,859.10
2018-04-24T06:41:43.408Z,859.06
2018-04-24T06:42:43.292Z,859.05
2018-04-24T06:43:43.160Z,859.04
2018-04-24T06:44:43.037Z,859.03
2018-04-24T06:45:42.915Z,859.00
2018-04-24T06:46:42.791Z,859.03
2018-04-24T06:47:42.689Z,859.04
2018-04-24T06:48:42.546Z,858.99
2018-04-24T06:49:42.421Z,858.99
2018-04-24T06:50:42.299Z,859.03
2018-04-24T06:51:42.175Z,859.02
2018-04-24T06:52:42.057Z,858.97
2018-04-24T06:53:41.929Z,859.00
2018-04-24T06:54:41.811Z,858.98
2018-04-24T06:55:41.686Z,859.02
2018-04-24T06:56:41.559Z,859.01
2018-04-24T06:57:41.437Z,858.98
2018-04-24T06:58:41.318Z,859.04
2018-04-24T06:59:41.195Z,859.02
2018-04-24T07:00:41.159Z,859.04
2018-04-24T07:01:40.945Z,858.99
2018-04-24T07:02:40.822Z,859.03
2018-04-24T07:03:40.699Z,858.93
2018-04-24T07:04:40.577Z,858.93
2018-04-24T07:05:40.452Z,858.92
2018-04-24T07:06:40.330Z,858.92
2018-04-24T07:07:40.208Z,858.90
2018-04-24T07:08:40.085Z,858.90
2018-04-24T07:09:39.963Z,858.90
2018-04-24T07:10:39.839Z,858.88
2018-04-24T07:11:39.718Z,858.89
2018-04-24T07:12:39.596Z,858.87
2018-04-24T07:13:39.470Z,858.89
2018-04-24T07:14:39.353Z,858.88
2018-04-24T07:15:39.226Z,858.86
2018-04-24T07:16:39.105Z,858.82
2018-04-24T07:17:38.984Z,858.85
2018-04-24T07:18:38.859Z,858.84
2018-04-24T07:19:38.734Z,858.85
2018-04-24T07:20:38.614Z,858.83
2018-04-24T07:21:38.490Z,858.82
2018-04-24T07:22:38.371Z,858.85
2018-04-24T07:23:38.249Z,858.79
2018-04-24T07:24:38.126Z,858.78
2018-04-24T07:25:38.006Z,858.81
2018-04-24T07:26:37.880Z,858.79
2018-04-24T07:27:37.760Z,858.78
2018-04-24T07:28:37.638Z,858.75
2018-04-24T07:29:37.514Z,858.76
2018-04-24T07:30:37.392Z,858.75
2018-04-24T07:31:37.271Z,858.75
2018-04-24T07:32:37.147Z,858.73
2018-04-24T07:33:37.027Z,858.78
2018-04-24T07:34:36.904Z,858.78
2018-04-24T07:35:36.784Z,858.79
2018-04-24T07:36:36.661Z,858.78
2018-04-24T07:37:36.542Z,858.79
2018-04-24T07:38:36.423Z,858.76
2018-04-24T07:39:36.294Z,858.78
2018-04-24T07:40:36.173Z,858.75
2018-04-24T07:41:36.049Z,858.79
2018-04-24T07:42:35.929Z,858.73
2018-04-24T07:43:35.809Z,858.76
2018-04-24T07:44:35.686Z,858.74
2018-04-24T07:45:35.562Z,858.74
2018-04-24T07:46:35.468Z,858.78
2018-04-24T07:47:35.320Z,858.73
2018-04-24T07:48:35.202Z,858.68
2018-04-24T07:49:35.079Z,858.71
2018-04-24T07:50:34.956Z,858.73
2018-04-24T07:51:34.835Z,858.74
2018-04-24T07:52:34.714Z,858.72
2018-04-24T07:53:34.593Z,858.75
2018-04-24T07:54:34.469Z,858.72
2018-04-24T07:55:34.348Z,858.73
2018-04-24T07:56:34.228Z,858.74
2018-04-24T07:57:34.106Z,858.79
2018-04-24T07:58:33.985Z,858.77
2018-04-24T07:59:33.863Z,858.80
2018-04-24T08:00:33.744Z,858.83
2018-04-24T08:01:33.621Z,858.86
2018-04-24T08:02:33.499Z,858.83
2018-04-24T08:03:33.379Z,858.87
2018-04-24T08:04:33.259Z,858.87
2018-04-24T08:05:33.140Z,858.86
2018-04-24T08:06:33.015Z,858.86
2018-04-24T08:07:32.894Z,858.89
2018-04-24T08:08:32.840Z,858.92
2018-04-24T08:09:32.653Z,858.92
2018-04-24T08:10:32.532Z,858.91
2018-04-24T08:11:32.410Z,858.94
2018-04-24T08:12:32.289Z,858.94
2018-04-24T08:13:32.164Z,858.94
2018-04-24T08:14:32.048Z,858.93
2018-04-24T08:15:31.924Z,858.92
2018-04-24T08:16:31.858Z,858.99
2018-04-24T08:17:31.681Z,859.01
2018-04-24T08:18:31.561Z,858.99
2018-04-24T08:19:31.439Z,858.98
2018-04-24T08:20:31.320Z,858.99
2018-04-24T08:21:31.198Z,858.99
2018-04-24T08:22:31.076Z,858.97
2018-04-24T08:23:30.955Z,858.99
2018-04-24T08:24:30.835Z,858.95
2018-04-24T08:25:30.716Z,858.94
2018-04-24T08:26:30.599Z,858.97
2018-04-24T08:27:30.474Z,858.97
2018-04-24T08:28:30.356Z,858.95
2018-04-24T08:29:30.309Z,858.99
2018-04-24T08:30:30.109Z,859.00
2018-04-24T08:31:29.990Z,858.99
2018-04-24T08:32:29.871Z,858.98
2018-04-24T08:33:29.748Z,858.99
2018-04-24T08:34:29.628Z,858.98
2018-04-24T08:35:29.507Z,858.97
2018-04-24T08:36:29.394Z,858.97
2018-04-24T08:37:29.265Z,859.00
2018-04-24T08:38:29.145Z,859.00
2018-04-24T08:39:29.026Z,858.95
2018-04-24T08:40:28.905Z,858.95
2018-04-24T08:41:28.784Z,858.99
2018-04-24T08:42:28.662Z,858.97
2018-04-24T08:43:28.543Z,858.96
2018-04-24T08:44:28.424Z,858.95
2018-04-24T08:45:28.301Z,858.93
2018-04-24T08:46:28.180Z,858.94
2018-04-24T08:47:28.062Z,858.91
2018-04-24T08:48:27.944Z,858.90
2018-04-24T08:49:27.819Z,858.95
2018-04-24T08:50:27.699Z,858.88
2018-04-24T08:51:27.580Z,858.93
2018-04-24T08:52:27.460Z,858.90
2018-04-24T08:53:27.343Z,858.87
2018-04-24T08:54:27.219Z,858.81
2018-04-24T08:55:27.099Z,858.73
2018-04-24T08:56:26.984Z,858.76
2018-04-24T08:57:26.859Z,858.76
2018-04-24T08:58:26.776Z,858.77
2018-04-24T08:59:26.618Z,858.73
2018-04-24T09:00:26.500Z,858.75
2018-04-24T09:01:26.382Z,858.80
2018-04-24T09:02:26.264Z,858.74
2018-04-24T09:03:26.138Z,858.71
2018-04-24T09:04:26.020Z,858.76
2018-04-24T09:05:25.900Z,858.73
2018-04-24T09:06:25.779Z,858.71
2018-04-24T09:07:25.660Z,858.66
2018-04-24T09:08:25.545Z,858.72
2018-04-24T09:09:25.425Z,858.69
2018-04-24T09:10:25.303Z,858.69
2018-04-24T09:11:25.184Z,858.67
2018-04-24T09:12:25.065Z,858.70
2018-04-24T09:13:24.948Z,858.68
2018-04-24T09:14:24.825Z,858.65
2018-04-24T09:15:24.714Z,858.63
2018-04-24T09:16:24.587Z,858.61
2018-04-24T09:17:24.466Z,858.62
2018-04-24T09:18:24.347Z,858.62
2018-04-24T09:19:24.226Z,858.57
2018-04-24T09:20:24.110Z,858.58
2018-04-24T09:21:23.989Z,858.56
2018-04-24T09:22:23.875Z,858.59
2018-04-24T09:23:23.755Z,858.58
2018-04-24T09:24:23.633Z,858.59
2018-04-24T09:25:23.512Z,858.52
2018-04-24T09:26:23.392Z,858.53
2018-04-24T09:27:23.273Z,858.45
2018-04-24T09:28:23.157Z,858.46
2018-04-24T09:29:23.031Z,858.45
2018-04-24T09:30:22.920Z,858.46
2018-04-24T09:31:22.799Z,858.47
2018-04-24T09:32:22.679Z,858.50
2018-04-24T09:33:22.577Z,858.49
2018-04-24T09:34:22.437Z,858.44
2018-04-24T09:35:22.321Z,858.46
2018-04-24T09:36:22.202Z,858.46
2018-04-24T09:37:22.083Z,858.45
2018-04-24T09:38:21.962Z,858.45
2018-04-24T09:39:21.846Z,858.41
2018-04-24T09:40:21.728Z,858.37
2018-04-24T09:41:21.614Z,858.35
2018-04-24T09:42:21.487Z,858.34
2018-04-24T09:43:21.369Z,858.37
2018-04-24T09:44:21.253Z,858.35
2018-04-24T09:45:21.132Z,858.37
2018-04-24T09:46:21.012Z,858.35
2018-04-24T09:47:20.895Z,858.35
2018-04-24T09:48:20.777Z,858.35
2018-04-24T09:49:20.655Z,858.34
2018-04-24T09:50:20.535Z,858.33
2018-04-24T09:51:20.477Z,858.36
2018-04-24T09:52:20.301Z,858.36
2018-04-24T09:53:20.179Z,858.35
2018-04-24T09:54:20.095Z,858.32
2018-04-24T09:55:19.942Z,858.32
2018-04-24T09:56:19.825Z,858.30
2018-04-24T09:57:19.705Z,858.30
2018-04-24T09:58:19.587Z,858.29
2018-04-24T09:59:19.468Z,858.33
2018-04-24T10:00:19.351Z,858.25
2018-04-24T10:01:19.231Z,858.30
2018-04-24T10:02:19.185Z,858.27
2018-04-24T10:03:18.995Z,858.23
2018-04-24T10:04:18.876Z,858.22
2018-04-24T10:05:18.757Z,858.23
2018-04-24T10:06:18.640Z,858.18
2018-04-24T10:07:18.522Z,858.21
2018-04-24T10:08:18.408Z,858.15
2018-04-24T10:09:18.282Z,858.19
2018-04-24T10:10:18.165Z,858.14
2018-04-24T10:11:18.047Z,858.13
2018-04-24T10:12:17.929Z,858.12
2018-04-24T10:13:17.809Z,858.10
2018-04-24T10:14:17.691Z,858.09
2018-04-24T10:15:17.573Z,858.12
2018-04-24T10:16:17.456Z,858.06
2018-04-24T10:17:17.337Z,858.06
2018-04-24T10:18:17.219Z,858.03
2018-04-24T10:19:17.101Z,858.07
2018-04-24T10:20:16.983Z,858.01
2018-04-24T10:21:16.871Z,858.04
2018-04-24T10:22:16.745Z,858.01
2018-04-24T10:23:16.629Z,858.01
2018-04-24T10:24:16.509Z,858.01
2018-04-24T10:25:16.391Z,858.00
2018-04-24T10:26:16.275Z,857.99
2018-04-24T10:27:16.161Z,857.96
2018-04-24T10:28:16.041Z,857.99
2018-04-24T10:29:15.922Z,857.94
2018-04-24T10:30:15.804Z,857.91
2018-04-24T10:31:15.689Z,857.92
2018-04-24T10:32:15.571Z,857.92
2018-04-24T10:33:15.454Z,857.96
2018-04-24T10:34:15.336Z,857.91
2018-04-24T10:35:15.218Z,857.90
2018-04-24T10:36:15.101Z,857.97
2018-04-24T10:37:14.987Z,857.98
2018-04-24T10:38:14.918Z,857.93
2018-04-24T10:39:14.749Z,857.92
2018-04-24T10:40:14.629Z,857.90
2018-04-24T10:41:14.519Z,857.87
2018-04-24T10:42:14.396Z,857.89
2018-04-24T10:43:14.280Z,857.86
2018-04-24T10:44:14.167Z,857.91
2018-04-24T10:45:14.044Z,857.86
2018-04-24T10:46:13.927Z,857.86
2018-04-24T10:47:13.811Z,857.85
2018-04-24T10:48:13.694Z,857.81
2018-04-24T10:49:13.577Z,857.81
2018-04-24T10:50:13.462Z,857.83
2018-04-24T10:51:13.345Z,857.80
2018-04-24T10:52:13.227Z,857.81
2018-04-24T10:53:13.115Z,857.83
2018-04-24T10:54:12.998Z,857.77
2018-04-24T10:55:12.881Z,857.78
2018-04-24T10:56:12.762Z,857.72
2018-04-24T10:57:12.648Z,857.76
2018-04-24T10:58:12.532Z,857.79
2018-04-24T10:59:12.411Z,857.76
2018-04-24T11:00:12.296Z,857.77
2018-04-24T11:01:12.180Z,857.80
2018-04-24T11:02:12.064Z,857.76
2018-04-24T11:03:11.948Z,857.71
2018-04-24T11:04:11.830Z,857.72
2018-04-24T11:05:11.715Z,857.71
2018-04-24T11:06:11.596Z,857.69
2018-04-24T11:07:11.568Z,857.69
2018-04-24T11:08:11.368Z,857.71
2018-04-24T11:09:11.252Z,857.63
2018-04-24T11:10:11.134Z,857.68
2018-04-24T11:11:11.016Z,857.68
2018-04-24T11:12:10.902Z,857.62
2018-04-24T11:13:10.786Z,857.63
2018-04-24T11:14:10.669Z,857.60
2018-04-24T11:15:10.556Z,857.63
2018-04-24T11:16:10.436Z,857.61
2018-04-24T11:17:10.320Z,857.61
2018-04-24T11:18:10.205Z,857.60
2018-04-24T11:19:10.087Z,857.57
2018-04-24T11:20:09.972Z,857.56
2018-04-24T11:21:09.858Z,857.53
2018-04-24T11:22:09.741Z,857.48
2018-04-24T11:23:09.632Z,857.55
2018-04-24T11:24:09.511Z,857.50
2018-04-24T11:25:09.395Z,857.55
2018-04-24T11:26:09.279Z,857.53
2018-04-24T11:27:09.164Z,857.50
2018-04-24T11:28:09.050Z,857.56
2018-04-24T11:29:08.941Z,857.53
2018-04-24T11:30:08.818Z,857.51
2018-04-24T11:31:08.704Z,857.53
2018-04-24T11:32:08.590Z,857.51
2018-04-24T11:33:08.473Z,857.52
2018-04-24T11:34:08.424Z,857.44
2018-04-24T11:35:08.242Z,857.46
2018-04-24T11:36:08.131Z,857.49
2018-04-24T11:37:08.015Z,857.49
2018-04-24T11:38:07.899Z,857.48
2018-04-24T11:39:07.785Z,857.47
2018-04-24T11:40:07.671Z,857.40
2018-04-24T11:41:07.662Z,857.43
2018-04-24T11:42:07.440Z,857.41
2018-04-24T11:43:07.327Z,857.38
2018-04-24T11:44:07.234Z,857.41
2018-04-24T11:45:07.173Z,857.37
2018-04-24T11:46:06.981Z,857.36
2018-04-24T11:47:06.866Z,857.38
2018-04-24T11:48:06.757Z,857.36
2018-04-24T11:49:06.736Z,857.38
2018-04-24T11:50:06.577Z,857.36
2018-04-24T11:51:06.516Z,857.32
2018-04-24T11:52:06.525Z,857.36
2018-04-24T11:53:06.177Z,857.29
2018-04-24T11:54:06.062Z,857.25
2018-04-24T11:55:05.955Z,857.28
2018-04-24T11:56:05.843Z,857.30
2018-04-24T11:57:05.733Z,857.25
2018-04-24T11:58:05.604Z,857.28
2018-04-24T11:59:05.489Z,857.34
2018-04-24T12:00:05.402Z,857.26
2018-04-24T12:01:05.264Z,857.22
2018-04-24T12:02:05.212Z,857.25
2018-04-24T12:03:05.034Z,857.23
2018-04-24T12:04:04.920Z,857.25
2018-04-24T12:05:04.802Z,857.21
2018-04-24T12:06:04.686Z,857.20
2018-04-24T12:07:04.575Z,857.19
2018-04-24T12:08:04.461Z,857.15
2018-04-24T12:09:04.344Z,857.18
2018-04-24T12:10:04.278Z,857.14
2018-04-24T12:11:04.116Z,857.11
2018-04-24T12:12:04.002Z,857.21
2018-04-24T12:13:03.887Z,857.21
2018-04-24T12:14:03.774Z,857.18
2018-04-24T12:15:03.659Z,857.15
2018-04-24T12:16:03.544Z,857.17
2018-04-24T12:17:03.428Z,857.16
2018-04-24T12:18:03.372Z,857.20
2018-04-24T12:19:03.199Z,857.16
2018-04-24T12:20:03.085Z,857.11
2018-04-24T12:21:02.973Z,857.12
2018-04-24T12:22:02.857Z,857.08
2018-04-24T12:23:02.745Z,857.10
2018-04-24T12:24:02.631Z,857.08
2018-04-24T12:25:02.520Z,857.17
2018-04-24T12:26:02.405Z,857.16
2018-04-24T12:27:02.401Z,857.15